createdAt,value
2022-08-14T00:00:19.207Z,60.10
2022-08-14T00:03:29.554Z,61.80
2022-08-14T00:06:25.276Z,64.06
2022-08-14T00:08:59.203Z,62.59
2022-08-14T00:11:40.069Z,60.31
2022-08-14T00:14:25.364Z,58.20
2022-08-14T00:36:48.095Z,63.17
2022-08-14T00:39:19.979Z,61.68
2022-08-14T00:41:48.586Z,59.97
2022-08-14T00:44:21.275Z,58.35
2022-08-14T00:47:10.853Z,59.24
2022-08-14T00:49:46.390Z,60.87
2022-08-14T00:52:21.816Z,61.78
2022-08-14T00:54:58.561Z,63.99
2022-08-14T00:57:33.237Z,63.70
2022-08-14T01:00:18.071Z,61.08
2022-08-14T01:03:07.517Z,58.57
2022-08-14T01:05:50.872Z,58.95
2022-08-14T01:08:51.196Z,60.04
2022-08-14T01:11:19.476Z,60.83
2022-08-14T01:13:56.123Z,61.30
2022-08-14T01:16:31.606Z,63.91
2022-08-14T01:19:21.336Z,63.16
2022-08-14T01:21:53.572Z,62.42
2022-08-14T01:24:34.221Z,60.34
2022-08-14T01:27:07.210Z,57.47
2022-08-14T01:30:03.845Z,57.55
2022-08-14T01:32:30.246Z,58.69
2022-08-14T01:35:17.798Z,59.96
2022-08-14T01:45:04.374Z,63.34
2022-08-14T01:45:17.888Z,62.20
2022-08-14T01:48:03.648Z,60.94
2022-08-14T01:50:33.847Z,58.05
2022-08-14T01:53:02.574Z,58.38
2022-08-14T01:55:32.618Z,59.75
2022-08-14T01:58:38.072Z,60.95
2022-08-14T02:01:57.812Z,61.79
2022-08-14T02:04:56.295Z,64.00
2022-08-14T02:07:34.714Z,63.69
2022-08-14T02:10:15.928Z,63.16
2022-08-14T02:12:54.218Z,61.71
2022-08-14T02:15:26.465Z,60.21
2022-08-14T02:17:54.533Z,57.96
2022-08-14T02:20:24.314Z,58.65
2022-08-14T02:22:55.428Z,60.53
2022-08-14T02:25:24.078Z,62.13
2022-08-14T02:28:26.017Z,64.09
2022-08-14T02:30:52.387Z,63.69
2022-08-14T02:33:22.845Z,60.54
2022-08-14T02:35:57.866Z,57.22
2022-08-14T02:38:35.046Z,57.80
2022-08-14T02:41:08.900Z,58.78
2022-08-14T02:43:46.170Z,60.40
2022-08-14T02:46:20.170Z,62.18
2022-08-14T02:49:01.333Z,64.73
2022-08-14T02:51:36.587Z,62.59
2022-08-14T02:54:07.857Z,59.30
2022-08-14T02:57:15.335Z,56.87
2022-08-14T02:59:33.934Z,58.28
2022-08-14T03:02:05.774Z,60.29
2022-08-14T03:04:35.152Z,61.75
2022-08-14T03:07:17.062Z,62.90
2022-08-14T03:10:28.116Z,64.46
2022-08-14T03:12:54.011Z,61.63
2022-08-14T03:15:25.862Z,58.29
2022-08-14T03:17:58.582Z,58.34
2022-08-14T03:20:28.932Z,59.75
2022-08-14T03:23:00.288Z,60.96
2022-08-14T03:25:37.582Z,62.87
2022-08-14T03:28:07.978Z,62.43
2022-08-14T03:30:46.267Z,60.43
2022-08-14T03:33:14.279Z,57.33
2022-08-14T03:36:00.340Z,57.35
2022-08-14T03:39:12.487Z,58.65
2022-08-14T03:41:22.961Z,59.83
2022-08-14T03:44:01.481Z,61.31
2022-08-14T03:47:04.953Z,63.70
2022-08-14T03:49:33.925Z,63.02
2022-08-14T03:52:18.084Z,60.45
2022-08-14T03:54:53.962Z,57.55
2022-08-14T03:57:22.646Z,57.85
2022-08-14T03:59:51.444Z,59.18
2022-08-14T04:02:33.036Z,60.02
2022-08-14T04:05:11.978Z,60.99
2022-08-14T04:07:49.671Z,63.19
2022-08-14T04:10:32.047Z,63.15
2022-08-14T04:13:06.535Z,60.26
2022-08-14T04:15:56.416Z,57.62
2022-08-14T04:18:23.936Z,57.53
2022-08-14T04:20:54.531Z,58.92
2022-08-14T04:23:32.922Z,60.04
2022-08-14T04:26:04.944Z,61.08
2022-08-14T04:29:01.879Z,63.15
2022-08-14T04:32:56.692Z,62.48
2022-08-14T04:34:20.562Z,60.17
2022-08-14T04:37:09.383Z,57.62
2022-08-14T04:39:57.977Z,57.51
2022-08-14T04:42:47.428Z,59.12
2022-08-14T04:45:23.870Z,59.99
2022-08-14T04:48:12.540Z,60.46
2022-08-14T04:50:53.804Z,62.95
2022-08-14T04:53:35.613Z,62.41
2022-08-14T04:56:30.155Z,60.07
2022-08-14T04:59:09.938Z,57.94
2022-08-14T05:01:48.714Z,58.57
2022-08-14T05:04:21.298Z,60.16
2022-08-14T05:06:53.711Z,61.42
2022-08-14T05:09:29.002Z,63.10
2022-08-14T05:13:10.645Z,62.39
2022-08-14T05:14:54.868Z,59.68
2022-08-14T05:17:28.804Z,57.53
2022-08-14T05:21:04.449Z,57.90
2022-08-14T05:22:55.991Z,59.58
2022-08-14T05:25:35.464Z,61.33
2022-08-14T05:28:23.108Z,62.47
2022-08-14T05:30:58.456Z,62.30
2022-08-14T05:33:28.885Z,59.99
2022-08-14T05:36:01.379Z,57.84
2022-08-14T05:38:37.105Z,58.35
2022-08-14T05:41:18.475Z,59.95
2022-08-14T05:43:48.078Z,61.10
2022-08-14T05:46:23.025Z,62.33
2022-08-14T05:48:57.485Z,63.38
2022-08-14T05:51:28.587Z,62.28
2022-08-14T05:54:11.327Z,60.34
2022-08-14T05:56:41.008Z,58.72
2022-08-14T05:59:08.784Z,58.86
2022-08-14T06:01:36.881Z,59.62
2022-08-14T06:04:05.255Z,60.66
2022-08-14T06:06:38.145Z,61.91
2022-08-14T06:09:09.707Z,63.31
2022-08-14T06:11:38.269Z,61.87
2022-08-14T06:14:12.462Z,59.40
2022-08-14T06:16:49.688Z,58.91
2022-08-14T06:19:23.062Z,59.77
2022-08-14T06:21:58.129Z,60.62
2022-08-14T06:24:30.634Z,61.33
2022-08-14T06:27:06.080Z,61.80
2022-08-14T06:29:38.565Z,63.40
2022-08-14T06:32:36.923Z,62.84
2022-08-14T06:35:09.852Z,60.28
2022-08-14T06:37:59.339Z,57.66
2022-08-14T06:40:34.404Z,57.97
2022-08-14T06:43:08.324Z,58.92
2022-08-14T06:45:38.761Z,60.15
2022-08-14T06:48:23.820Z,60.79
2022-08-14T06:50:57.988Z,61.84
2022-08-14T06:53:27.797Z,63.02
2022-08-14T06:59:20.216Z,59.67
2022-08-14T07:02:25.482Z,57.50
2022-08-14T07:05:23.579Z,58.52
2022-08-14T07:07:52.086Z,59.86
2022-08-14T07:10:22.371Z,60.81
2022-08-14T07:13:03.671Z,61.05
2022-08-14T07:15:39.786Z,61.76
2022-08-14T07:18:10.689Z,62.94
2022-08-14T07:20:44.448Z,62.60
2022-08-14T07:23:20.875Z,59.98
2022-08-14T07:25:53.121Z,56.35
2022-08-14T07:28:27.972Z,56.32
2022-08-14T07:31:04.985Z,57.13
2022-08-14T07:33:50.574Z,57.94
2022-08-14T07:36:27.358Z,58.37
2022-08-14T07:39:12.429Z,58.86
2022-08-14T07:41:44.467Z,59.61
2022-08-14T07:44:32.739Z,59.85
2022-08-14T07:47:02.386Z,60.06
2022-08-14T07:49:34.301Z,60.64
2022-08-14T07:52:05.448Z,61.15
2022-08-14T07:54:36.620Z,61.34
2022-08-14T07:57:11.794Z,61.58
2022-08-14T07:59:44.727Z,61.12
2022-08-14T08:02:20.332Z,61.35
2022-08-14T08:04:59.196Z,60.78
2022-08-14T08:07:31.216Z,61.00
2022-08-14T08:10:46.826Z,61.17
2022-08-14T08:13:25.663Z,60.68
2022-08-14T08:16:00.402Z,60.58
2022-08-14T08:18:31.129Z,59.86
2022-08-14T08:21:00.252Z,59.04
2022-08-14T08:28:36.036Z,58.29
2022-08-14T08:31:08.224Z,58.57
2022-08-14T08:33:40.250Z,58.16
2022-08-14T08:36:12.701Z,58.37
2022-08-14T08:39:16.953Z,57.77
2022-08-14T08:41:50.475Z,56.78
2022-08-14T08:44:34.713Z,57.46
2022-08-14T08:47:06.768Z,56.98
2022-08-14T08:49:48.698Z,55.89
2022-08-14T08:52:35.606Z,55.86
2022-08-14T08:55:14.179Z,55.37
2022-08-14T08:57:43.243Z,53.78
2022-08-14T09:00:24.979Z,52.58
2022-08-14T09:03:00.111Z,52.73
2022-08-14T09:05:38.097Z,52.36
2022-08-14T09:08:31.780Z,52.47
2022-08-14T09:11:19.347Z,50.94
2022-08-14T09:13:55.030Z,50.42
2022-08-14T09:16:25.998Z,49.74
2022-08-14T09:18:56.125Z,49.00
2022-08-14T09:21:24.964Z,48.23
2022-08-14T09:24:29.441Z,46.55
2022-08-14T09:26:49.135Z,46.48
2022-08-14T09:29:23.171Z,45.66
2022-08-14T09:31:59.209Z,44.77
2022-08-14T09:35:03.947Z,43.93
2022-08-14T09:38:25.861Z,43.34
2022-08-14T09:42:21.890Z,42.58
2022-08-14T09:45:08.950Z,42.48
2022-08-14T09:47:46.744Z,42.23
2022-08-14T09:50:25.742Z,42.64
2022-08-14T09:53:04.535Z,42.73
2022-08-14T09:55:42.372Z,43.04
2022-08-14T09:58:20.038Z,42.98
2022-08-14T10:00:54.477Z,43.54
2022-08-14T10:03:34.624Z,43.85
2022-08-14T10:06:20.447Z,44.02
2022-08-14T10:08:52.013Z,44.40
2022-08-14T10:11:25.053Z,44.10
2022-08-14T10:14:35.240Z,43.77
2022-08-14T10:17:08.598Z,43.52
2022-08-14T10:19:48.914Z,42.87
2022-08-14T10:23:15.008Z,42.71
2022-08-14T10:25:17.947Z,42.12
2022-08-14T10:28:00.674Z,41.97
2022-08-14T10:30:35.220Z,42.36
2022-08-14T10:33:04.220Z,42.16
2022-08-14T10:35:48.156Z,42.40
2022-08-14T10:38:35.448Z,42.42
2022-08-14T10:41:19.559Z,42.34
2022-08-14T10:44:21.028Z,43.00
2022-08-14T10:47:41.512Z,43.52
2022-08-14T10:50:00.630Z,43.73
2022-08-14T10:52:34.783Z,43.83
2022-08-14T10:55:09.986Z,44.16
2022-08-14T10:57:57.247Z,44.67
2022-08-14T11:00:35.720Z,45.13
2022-08-14T11:03:19.804Z,45.30
2022-08-14T11:05:55.658Z,45.29
2022-08-14T11:08:33.171Z,45.32
2022-08-14T11:11:06.036Z,45.18
2022-08-14T11:13:34.840Z,45.45
2022-08-14T11:16:03.489Z,45.47
2022-08-14T11:18:40.508Z,45.12
2022-08-14T11:21:10.498Z,45.03
2022-08-14T11:23:41.175Z,45.58
2022-08-14T11:26:20.482Z,45.81
2022-08-14T11:28:53.741Z,45.95
2022-08-14T11:31:24.396Z,46.21
2022-08-14T11:33:55.601Z,46.46
2022-08-14T11:36:56.934Z,46.45
2022-08-14T11:39:34.239Z,46.55
2022-08-14T11:43:07.845Z,46.53
2022-08-14T11:45:04.661Z,46.59
2022-08-14T11:48:10.856Z,46.47
2022-08-14T11:50:37.678Z,45.87
2022-08-14T11:53:08.733Z,46.09
2022-08-14T11:55:39.753Z,45.77
2022-08-14T11:58:11.765Z,45.12
2022-08-14T12:00:52.551Z,44.91
2022-08-14T12:03:37.451Z,45.20
2022-08-14T12:06:29.377Z,45.34
2022-08-14T12:09:08.768Z,45.36
2022-08-14T12:11:46.981Z,45.45
2022-08-14T12:14:30.091Z,45.59
2022-08-14T12:17:12.846Z,45.73
2022-08-14T12:19:58.660Z,46.05
2022-08-14T12:22:42.358Z,46.23
2022-08-14T12:25:19.527Z,46.46
2022-08-14T12:27:53.901Z,46.92
2022-08-14T12:30:44.657Z,47.32
2022-08-14T12:33:27.142Z,47.80
2022-08-14T12:36:04.564Z,48.28
2022-08-14T12:38:43.768Z,48.74
2022-08-14T12:41:21.758Z,49.25
2022-08-14T12:43:56.808Z,49.73
2022-08-14T12:46:37.785Z,49.72
2022-08-14T12:49:23.227Z,49.54
2022-08-14T12:52:01.380Z,49.25
2022-08-14T12:54:32.332Z,49.33
2022-08-14T12:57:20.366Z,49.51
2022-08-14T12:59:50.664Z,49.03
2022-08-14T13:02:25.340Z,49.09
2022-08-14T13:04:58.761Z,49.04
2022-08-14T13:07:32.090Z,48.67
2022-08-14T13:10:12.907Z,48.02
2022-08-14T13:13:15.692Z,47.92
2022-08-14T13:15:47.794Z,47.64
2022-08-14T13:18:17.215Z,47.61
2022-08-14T13:20:51.198Z,48.04
2022-08-14T13:23:31.898Z,47.67
2022-08-14T13:26:01.213Z,47.48
2022-08-14T13:28:41.197Z,47.48
2022-08-14T13:31:24.324Z,47.74
2022-08-14T13:34:00.445Z,47.56
2022-08-14T13:36:51.677Z,47.38
2022-08-14T13:39:21.104Z,46.95
2022-08-14T13:41:56.019Z,47.12
2022-08-14T13:44:27.226Z,46.42
2022-08-14T13:46:55.765Z,46.60
2022-08-14T13:49:24.342Z,47.02
2022-08-14T13:51:53.802Z,46.65
2022-08-14T13:54:24.441Z,47.14
2022-08-14T13:56:53.575Z,47.42
2022-08-14T13:59:37.099Z,47.48
2022-08-14T14:02:08.387Z,47.53
2022-08-14T14:04:49.524Z,48.30
2022-08-14T14:07:21.839Z,48.31
2022-08-14T14:09:54.164Z,48.91
2022-08-14T14:12:37.899Z,49.52
2022-08-14T14:15:15.263Z,49.89
2022-08-14T14:17:48.047Z,49.94
2022-08-14T14:20:34.315Z,49.88
2022-08-14T14:23:11.525Z,49.98
2022-08-14T14:25:51.235Z,49.92
2022-08-14T14:28:34.452Z,49.81
2022-08-14T14:31:06.784Z,50.04
2022-08-14T14:33:51.643Z,50.39
2022-08-14T14:36:27.822Z,51.09
2022-08-14T14:38:59.934Z,51.23
2022-08-14T14:41:37.995Z,50.35
2022-08-14T14:44:15.619Z,49.85
2022-08-14T14:46:51.117Z,50.62
2022-08-14T14:49:32.041Z,51.11
2022-08-14T14:52:26.684Z,51.08
2022-08-14T14:54:59.361Z,51.38
2022-08-14T14:57:34.875Z,50.24
2022-08-14T15:00:19.296Z,50.02
2022-08-14T15:02:52.157Z,50.33
2022-08-14T15:05:21.868Z,50.38
2022-08-14T15:07:52.768Z,50.38
2022-08-14T15:10:28.160Z,50.63
2022-08-14T15:13:04.159Z,50.81
2022-08-14T15:15:36.881Z,51.04
2022-08-14T15:18:14.945Z,50.99
2022-08-14T15:21:02.586Z,51.15
2022-08-14T15:23:32.524Z,51.11
2022-08-14T15:26:23.892Z,50.88
2022-08-14T15:29:06.084Z,51.04
2022-08-14T15:31:36.870Z,51.09
2022-08-14T15:34:45.885Z,50.92
2022-08-14T15:37:06.074Z,50.89
2022-08-14T15:39:35.742Z,50.17
2022-08-14T15:42:16.266Z,50.26
2022-08-14T15:44:57.768Z,50.01
2022-08-14T15:47:31.780Z,49.71
2022-08-14T15:50:05.042Z,49.30
2022-08-14T15:52:35.218Z,49.41
2022-08-14T15:55:15.501Z,49.16
2022-08-14T15:58:01.951Z,48.94
2022-08-14T16:00:54.296Z,49.27
2022-08-14T16:03:35.114Z,49.47
2022-08-14T16:06:17.787Z,49.45
2022-08-14T16:08:58.625Z,49.60
2022-08-14T16:11:28.758Z,49.54
2022-08-14T16:14:01.909Z,49.48
2022-08-14T16:16:50.548Z,49.64
2022-08-14T16:19:24.892Z,49.96
2022-08-14T16:22:01.268Z,50.18
2022-08-14T16:24:59.919Z,50.24
2022-08-14T16:27:34.126Z,50.62
2022-08-14T16:30:24.622Z,50.76
2022-08-14T16:32:58.757Z,50.97
2022-08-14T16:35:43.386Z,51.05
2022-08-14T16:38:46.339Z,51.33
2022-08-14T16:41:17.518Z,51.24
2022-08-14T16:43:45.895Z,51.48
2022-08-14T16:46:23.537Z,52.10
2022-08-14T16:48:57.004Z,52.12
2022-08-14T16:51:36.437Z,52.16
2022-08-14T16:54:33.968Z,52.16
2022-08-14T16:57:24.681Z,52.11
2022-08-14T16:59:59.975Z,52.31
2022-08-14T17:02:45.022Z,52.40
2022-08-14T17:05:22.814Z,52.83
2022-08-14T17:08:33.396Z,52.94
2022-08-14T17:11:12.599Z,53.14
2022-08-14T17:13:58.337Z,53.16
2022-08-14T17:16:37.656Z,52.84
2022-08-14T17:19:13.847Z,52.57
2022-08-14T17:21:47.121Z,52.52
2022-08-14T17:24:58.068Z,52.65
2022-08-14T17:27:10.316Z,52.91
2022-08-14T17:29:44.955Z,53.08
2022-08-14T17:32:29.984Z,53.32
2022-08-14T17:35:16.979Z,53.60
2022-08-14T17:37:55.949Z,53.74
2022-08-14T17:40:30.475Z,53.80
2022-08-14T17:43:01.879Z,53.94
2022-08-14T17:45:41.292Z,54.28
2022-08-14T17:49:14.262Z,54.77
2022-08-14T17:51:23.997Z,54.88
2022-08-14T17:54:01.503Z,54.97
2022-08-14T17:56:34.041Z,55.54
2022-08-14T17:59:07.448Z,56.16
2022-08-14T18:01:45.756Z,56.23
2022-08-14T18:04:27.855Z,56.34
2022-08-14T18:07:09.257Z,56.62
2022-08-14T18:09:56.985Z,56.68
2022-08-14T18:12:52.715Z,57.07
2022-08-14T18:15:21.271Z,57.34
2022-08-14T18:18:06.918Z,57.54
2022-08-14T18:21:40.369Z,57.60
2022-08-14T18:23:26.893Z,57.89
2022-08-14T18:25:57.433Z,57.98
2022-08-14T18:28:48.366Z,58.20
2022-08-14T18:31:20.056Z,58.22
2022-08-14T18:34:06.789Z,58.33
2022-08-14T18:37:03.672Z,58.48
2022-08-14T18:40:02.018Z,58.67
2022-08-14T18:42:35.164Z,58.80
2022-08-14T18:45:12.517Z,59.07
2022-08-14T18:50:47.573Z,59.68
2022-08-14T18:53:59.564Z,59.92
2022-08-14T18:56:58.466Z,60.41
2022-08-14T18:59:42.446Z,60.62
2022-08-14T19:02:30.608Z,61.01
2022-08-14T19:05:02.348Z,61.31
2022-08-14T19:07:33.861Z,61.29
2022-08-14T19:10:09.637Z,61.69
2022-08-14T19:12:52.594Z,61.96
2022-08-14T19:15:25.776Z,63.50
2022-08-14T19:18:14.839Z,62.22
2022-08-14T19:21:12.941Z,58.26
2022-08-14T19:23:44.207Z,57.71
2022-08-14T19:26:35.743Z,58.32
2022-08-14T19:29:37.845Z,59.08
2022-08-14T19:32:38.863Z,59.65
2022-08-14T19:35:49.964Z,60.17
2022-08-14T19:38:59.391Z,60.60
2022-08-14T19:41:35.269Z,61.22
2022-08-14T19:44:10.230Z,61.70
2022-08-14T19:47:01.208Z,62.18
2022-08-14T19:50:24.990Z,62.32
2022-08-14T19:52:29.883Z,64.24
2022-08-14T19:54:57.613Z,63.32
2022-08-14T19:57:30.707Z,60.93
2022-08-14T20:00:29.166Z,57.92
2022-08-14T20:03:12.032Z,57.58
2022-08-14T20:05:45.949Z,58.28
2022-08-14T20:11:00.562Z,59.01
2022-08-14T20:11:21.002Z,59.71
2022-08-14T20:14:11.070Z,60.36
2022-08-14T20:16:42.233Z,60.89
2022-08-14T20:19:16.717Z,61.20
2022-08-14T20:22:04.257Z,61.69
2022-08-14T20:24:43.675Z,64.21
2022-08-14T20:27:34.074Z,62.71
2022-08-14T20:30:34.945Z,58.86
2022-08-14T20:33:07.384Z,58.28
2022-08-14T20:35:43.740Z,59.16
2022-08-14T20:38:31.635Z,60.01
2022-08-14T20:41:08.619Z,61.15
2022-08-14T20:43:59.516Z,61.90
2022-08-14T20:46:31.266Z,64.17
2022-08-14T20:49:09.065Z,62.84
2022-08-14T20:51:58.613Z,59.95
2022-08-14T20:54:33.815Z,56.99
2022-08-14T20:57:15.386Z,57.21
2022-08-14T20:59:57.245Z,58.43
2022-08-14T21:02:46.206Z,59.54
2022-08-14T21:05:33.278Z,60.42
2022-08-14T21:08:08.041Z,61.48
2022-08-14T21:10:44.425Z,63.41
2022-08-14T21:13:27.602Z,62.65
2022-08-14T21:16:33.276Z,60.34
2022-08-14T21:18:58.232Z,57.64
2022-08-14T21:21:41.559Z,57.92
2022-08-14T21:24:39.213Z,59.12
2022-08-14T21:27:09.314Z,60.47
2022-08-14T21:29:40.610Z,61.32
2022-08-14T21:32:33.949Z,63.22
2022-08-14T21:35:08.280Z,63.08
2022-08-14T21:37:44.783Z,61.31
2022-08-14T21:40:40.719Z,58.78
2022-08-14T21:43:04.979Z,58.99
2022-08-14T21:45:35.646Z,60.19
2022-08-14T21:48:10.662Z,61.28
2022-08-14T21:51:00.634Z,62.73
2022-08-14T21:53:32.456Z,62.83
2022-08-14T21:56:02.231Z,61.49
2022-08-14T21:58:51.987Z,60.58
2022-08-14T22:01:19.699Z,59.01
2022-08-14T22:03:55.483Z,59.10
2022-08-14T22:06:29.136Z,60.21
2022-08-14T22:08:58.213Z,61.38
2022-08-14T22:11:27.302Z,62.52
2022-08-14T22:14:02.023Z,62.51
2022-08-14T22:16:58.735Z,61.67
2022-08-14T22:19:19.757Z,60.68
2022-08-14T22:21:48.430Z,59.80
2022-08-14T22:24:38.215Z,58.72
2022-08-14T22:27:06.903Z,59.06
2022-08-14T22:29:34.843Z,60.38
2022-08-14T22:32:07.118Z,61.67
2022-08-14T22:34:34.373Z,62.98
2022-08-14T22:37:01.582Z,63.34
2022-08-14T22:40:17.536Z,62.45
2022-08-14T22:42:22.754Z,59.48
2022-08-14T22:44:50.700Z,57.31
2022-08-14T22:47:18.896Z,58.17
2022-08-14T22:50:29.331Z,59.25
2022-08-14T22:52:39.696Z,60.63
2022-08-14T22:55:07.979Z,61.59
2022-08-14T22:57:37.390Z,63.76
2022-08-14T23:00:25.361Z,62.93
2022-08-14T23:03:03.327Z,61.50
2022-08-14T23:05:40.169Z,60.88
2022-08-14T23:09:00.325Z,59.71
2022-08-14T23:11:07.604Z,58.90
2022-08-14T23:13:36.797Z,59.64
2022-08-14T23:16:07.913Z,60.81
2022-08-14T23:18:37.709Z,61.78
2022-08-14T23:21:13.774Z,63.69
2022-08-14T23:23:43.463Z,63.47
2022-08-14T23:26:49.846Z,62.09
2022-08-14T23:28:58.679Z,61.32
2022-08-14T23:31:34.700Z,61.09
2022-08-14T23:34:09.156Z,60.78
2022-08-14T23:36:53.304Z,61.43
2022-08-14T23:39:32.269Z,59.48
2022-08-14T23:42:09.827Z,59.10
2022-08-14T23:44:38.974Z,60.57
2022-08-14T23:47:10.805Z,61.90
2022-08-14T23:50:01.149Z,63.26
2022-08-14T23:53:06.562Z,63.58
2022-08-14T23:55:21.659Z,64.08
2022-08-14T23:57:58.255Z,64.04
